CheckWX is a tool to help pilots better visualize weather data.  It is not intended as a substitute for an official pre-flight weather briefing.

00:55:29 UTC

CYBU METAR
Nipawin Airport
Nipawin, Canada
Current

55 mins ago

CYBU 240000Z AUTO 02017G23KT 9SM OVC025 01/M03 A3027 RMK SLP276
Observed
Mar-24 @ 00:00 UTC
Wind
  • 020° at 17 KTS
  • Gusting to 23 KTS
Visibility
9 SM
Flight Rules
MVFR
Cloud Levels
  • Overcast at 2,500' AGL
Temperature
C / 34°F
Dewpoint
-3°C / 27°F
Humidity
75%
Altimeter
30.27" Hg
Pressure
1027.6 hPa
Previous

2 hours ago

CYBU 232300Z AUTO 04019G24KT 9SM SCT025 02/M01 A3024 RMK SLP265
Observed
Mar-23 @ 23:00 UTC
Wind
  • 040° at 19 KTS
  • Gusting to 24 KTS
Visibility
9 SM
Flight Rules
VFR
Cloud Levels
  • Scattered at 2,500' AGL
Temperature
C / 36°F
Dewpoint
-1°C / 30°F
Humidity
81%
Altimeter
30.24" Hg
Pressure
1026.5 hPa
Previous

3 hours ago

CYBU 232200Z AUTO 02019KT 9SM CLR 03/M01 A3020 RMK SLP249
Observed
Mar-23 @ 22:00 UTC
Wind
  • 020° at 19 KTS
Visibility
9 SM
Flight Rules
VFR
Cloud Levels
  • Clear skies
Temperature
C / 37°F
Dewpoint
-1°C / 30°F
Humidity
75%
Altimeter
30.2" Hg
Pressure
1024.9 hPa